createdAt,value
2019-05-22T00:01:01.443Z,92.80
2019-05-22T00:03:31.817Z,92.70
2019-05-22T00:06:02.308Z,92.70
2019-05-22T00:08:31.900Z,93.00
2019-05-22T00:11:02.246Z,92.80
2019-05-22T00:13:31.154Z,92.60
2019-05-22T00:16:02.064Z,92.80
2019-05-22T00:18:31.532Z,92.60
2019-05-22T00:21:00.554Z,92.70
2019-05-22T00:23:31.319Z,92.70
2019-05-22T00:26:00.854Z,92.60
2019-05-22T00:28:30.956Z,92.60
2019-05-22T00:31:00.188Z,92.70
2019-05-22T00:33:29.905Z,92.50
2019-05-22T00:36:00.779Z,92.60
2019-05-22T00:38:31.810Z,92.50
2019-05-22T00:41:05.005Z,92.40
2019-05-22T00:43:41.785Z,92.40
2019-05-22T00:46:12.794Z,92.60
2019-05-22T00:48:43.335Z,93.10
2019-05-22T00:51:24.034Z,92.60
2019-05-22T00:54:00.556Z,92.70
2019-05-22T00:56:34.479Z,92.50
2019-05-22T00:59:21.382Z,92.80
2019-05-22T01:02:09.568Z,92.70
2019-05-22T01:04:42.198Z,92.80
2019-05-22T01:07:18.213Z,92.60
2019-05-22T01:09:52.916Z,92.40
2019-05-22T01:12:29.267Z,92.90
2019-05-22T01:15:01.116Z,92.40
2019-05-22T01:17:33.234Z,92.50
2019-05-22T01:20:03.319Z,92.80
2019-05-22T01:22:33.980Z,92.70
2019-05-22T01:25:04.654Z,92.80
2019-05-22T01:27:35.327Z,93.00
2019-05-22T01:30:07.518Z,93.20
2019-05-22T01:32:44.585Z,93.10
2019-05-22T01:35:14.138Z,93.00
2019-05-22T01:37:44.478Z,93.10
2019-05-22T01:40:32.714Z,92.90
2019-05-22T01:43:02.965Z,92.80
2019-05-22T01:45:33.671Z,92.40
2019-05-22T01:48:06.442Z,92.40
2019-05-22T01:50:41.300Z,92.50
2019-05-22T01:53:11.685Z,92.80
2019-05-22T01:55:41.613Z,92.40
2019-05-22T01:58:12.518Z,92.30
2019-05-22T02:00:42.235Z,92.50
2019-05-22T02:03:11.738Z,92.40
2019-05-22T02:05:42.571Z,92.40
2019-05-22T02:08:11.645Z,92.50
2019-05-22T02:10:42.602Z,92.50
2019-05-22T02:13:14.780Z,92.50
2019-05-22T02:15:46.297Z,92.80
2019-05-22T02:18:17.850Z,92.80
2019-05-22T02:20:46.882Z,92.70
2019-05-22T02:23:17.087Z,92.50
2019-05-22T02:25:45.823Z,92.20
2019-05-22T02:28:14.929Z,92.00
2019-05-22T02:30:46.325Z,91.90
2019-05-22T02:33:18.145Z,91.70
2019-05-22T02:35:47.567Z,91.40
2019-05-22T02:38:17.006Z,91.40
2019-05-22T02:40:49.662Z,91.70
2019-05-22T02:43:19.437Z,90.70
2019-05-22T02:45:49.782Z,90.50
2019-05-22T02:48:18.706Z,90.70
2019-05-22T02:50:48.471Z,90.50
2019-05-22T02:53:17.687Z,90.80
2019-05-22T02:55:47.494Z,90.40
2019-05-22T02:58:16.943Z,90.50
2019-05-22T03:01:01.551Z,90.80
2019-05-22T03:03:32.098Z,90.10
2019-05-22T03:06:02.347Z,90.60
2019-05-22T03:08:37.190Z,90.50
2019-05-22T03:11:07.435Z,88.40
2019-05-22T03:13:55.319Z,88.80
2019-05-22T03:16:26.482Z,87.70
2019-05-22T03:19:08.481Z,88.50
2019-05-22T03:21:26.166Z,88.40
2019-05-22T03:23:55.143Z,88.50
2019-05-22T03:26:39.363Z,87.50
2019-05-22T03:29:09.231Z,88.00
2019-05-22T03:31:38.467Z,87.50
2019-05-22T03:34:08.231Z,87.30
2019-05-22T03:36:37.594Z,87.00
2019-05-22T03:39:08.116Z,86.90
2019-05-22T03:41:37.788Z,86.30
2019-05-22T03:44:07.163Z,86.10
2019-05-22T03:46:40.710Z,85.50
2019-05-22T03:49:27.937Z,85.30
2019-05-22T03:51:42.543Z,85.30
2019-05-22T03:54:11.689Z,85.80
2019-05-22T03:56:42.167Z,85.10
2019-05-22T03:59:11.352Z,84.90
2019-05-22T04:01:40.325Z,84.70
2019-05-22T04:04:09.798Z,85.00
2019-05-22T04:06:40.313Z,85.20
2019-05-22T04:09:20.420Z,84.70
2019-05-22T04:11:50.539Z,83.90
2019-05-22T04:14:21.382Z,84.20
2019-05-22T04:16:51.920Z,83.30
2019-05-22T04:19:21.475Z,83.10
2019-05-22T04:21:50.507Z,84.00
2019-05-22T04:24:19.648Z,84.70
2019-05-22T04:26:49.129Z,84.20
2019-05-22T04:29:18.593Z,83.80
2019-05-22T04:31:53.339Z,82.60
2019-05-22T04:34:22.657Z,82.60
2019-05-22T04:36:51.621Z,84.00
2019-05-22T04:39:22.221Z,82.60
2019-05-22T04:41:51.496Z,83.30
2019-05-22T04:44:20.906Z,84.50
2019-05-22T04:46:50.401Z,87.30
2019-05-22T04:49:19.534Z,87.60
2019-05-22T04:51:48.174Z,87.40
2019-05-22T04:54:16.879Z,87.70
2019-05-22T04:56:45.611Z,88.40
2019-05-22T04:59:15.033Z,88.90
2019-05-22T05:01:43.689Z,89.40
2019-05-22T05:04:12.544Z,88.50
2019-05-22T05:06:41.872Z,88.30
2019-05-22T05:09:10.769Z,88.20
2019-05-22T05:11:39.746Z,88.70
2019-05-22T05:14:08.845Z,88.30
2019-05-22T05:16:37.832Z,87.90
2019-05-22T05:19:06.861Z,88.40
2019-05-22T05:21:37.066Z,88.40
2019-05-22T05:24:06.200Z,88.50
2019-05-22T05:26:36.178Z,88.80
2019-05-22T05:29:07.205Z,90.30
2019-05-22T05:31:36.166Z,90.30
2019-05-22T05:34:16.889Z,90.80
2019-05-22T05:36:46.614Z,90.80
2019-05-22T05:39:37.953Z,90.70
2019-05-22T05:42:06.696Z,90.90
2019-05-22T05:44:36.264Z,91.30
2019-05-22T05:47:06.891Z,91.70
2019-05-22T05:49:35.833Z,91.30
2019-05-22T05:52:06.355Z,91.50
2019-05-22T05:54:35.619Z,91.90
2019-05-22T05:57:36.515Z,91.60
2019-05-22T06:00:09.177Z,91.40
2019-05-22T06:02:38.076Z,92.20
2019-05-22T06:05:07.557Z,92.20
2019-05-22T06:07:36.268Z,92.20
2019-05-22T06:10:28.318Z,91.60
2019-05-22T06:12:57.693Z,92.30
2019-05-22T06:15:47.435Z,91.90
2019-05-22T06:18:29.951Z,92.30
2019-05-22T06:21:03.765Z,92.20
2019-05-22T06:23:39.611Z,91.50
2019-05-22T06:26:09.973Z,91.70
2019-05-22T06:28:40.509Z,91.20
2019-05-22T06:31:23.786Z,91.10
2019-05-22T06:33:52.422Z,91.10
2019-05-22T06:36:21.335Z,90.80
2019-05-22T06:38:53.607Z,91.00
2019-05-22T06:41:24.437Z,90.60
2019-05-22T06:44:27.434Z,91.00
2019-05-22T06:46:57.059Z,90.80
2019-05-22T06:49:34.681Z,90.10
2019-05-22T06:52:05.629Z,90.00
2019-05-22T06:54:34.543Z,90.00
2019-05-22T06:57:05.440Z,90.20
2019-05-22T06:59:34.385Z,90.60
2019-05-22T07:02:04.697Z,92.10
2019-05-22T07:04:34.129Z,92.20
2019-05-22T07:07:04.789Z,92.50
2019-05-22T07:09:33.731Z,93.50
2019-05-22T07:12:03.050Z,93.20
2019-05-22T07:14:33.334Z,93.70
2019-05-22T07:17:02.074Z,94.70
2019-05-22T07:19:32.725Z,94.30
2019-05-22T07:22:01.329Z,95.00
2019-05-22T07:24:30.371Z,95.50
2019-05-22T07:27:02.211Z,95.20
2019-05-22T07:29:31.517Z,94.60
2019-05-22T07:32:02.300Z,94.80
2019-05-22T07:34:31.394Z,93.70
2019-05-22T07:37:00.130Z,92.80
2019-05-22T07:39:29.166Z,91.30
2019-05-22T07:41:58.248Z,81.40
2019-05-22T07:44:26.955Z,77.90
2019-05-22T07:46:55.617Z,70.90
2019-05-22T07:49:24.692Z,65.80
2019-05-22T07:52:00.621Z,65.30
2019-05-22T07:54:24.429Z,60.90
2019-05-22T07:56:53.195Z,62.00
2019-05-22T07:59:21.854Z,58.00
2019-05-22T08:01:51.518Z,57.30
2019-05-22T08:04:20.803Z,58.90
2019-05-22T08:06:49.486Z,62.20
2019-05-22T08:09:19.941Z,70.10
2019-05-22T08:11:48.529Z,66.60
2019-05-22T08:14:19.211Z,67.00
2019-05-22T08:16:48.261Z,70.10
2019-05-22T08:19:17.119Z,69.20
2019-05-22T08:21:46.352Z,70.60
2019-05-22T08:24:15.305Z,70.40
2019-05-22T08:26:53.967Z,70.80
2019-05-22T08:29:15.683Z,69.80
2019-05-22T08:31:46.269Z,67.20
2019-05-22T08:34:15.206Z,66.50
2019-05-22T08:36:46.874Z,55.90
2019-05-22T08:39:15.947Z,55.20
2019-05-22T08:41:44.893Z,51.90
2019-05-22T08:44:17.305Z,50.10
2019-05-22T08:46:45.975Z,50.60
2019-05-22T08:49:15.362Z,52.10
2019-05-22T08:51:44.794Z,50.80
2019-05-22T08:54:14.219Z,50.90
2019-05-22T08:56:46.451Z,51.10
2019-05-22T08:59:19.498Z,52.60
2019-05-22T09:01:46.983Z,57.80
2019-05-22T09:04:16.499Z,60.30
2019-05-22T09:06:45.421Z,61.50
2019-05-22T09:09:14.516Z,61.70
2019-05-22T09:11:43.172Z,59.70
2019-05-22T09:14:12.190Z,59.90
2019-05-22T09:16:41.379Z,58.30
2019-05-22T09:19:10.472Z,54.30
2019-05-22T09:21:40.750Z,47.20
2019-05-22T09:24:13.281Z,42.80
2019-05-22T09:26:42.327Z,47.40
2019-05-22T09:29:11.292Z,53.80
2019-05-22T09:31:40.729Z,54.00
2019-05-22T09:34:09.821Z,50.40
2019-05-22T09:36:38.761Z,49.90
2019-05-22T09:39:09.467Z,47.30
2019-05-22T09:41:38.507Z,45.80
2019-05-22T09:44:07.375Z,43.60
2019-05-22T09:46:36.621Z,43.00
2019-05-22T09:49:06.079Z,47.50
2019-05-22T09:51:34.827Z,50.70
2019-05-22T09:54:03.659Z,51.00
2019-05-22T09:56:32.609Z,50.60
2019-05-22T09:59:01.737Z,49.80
2019-05-22T10:01:30.935Z,48.90
2019-05-22T10:04:00.167Z,47.40
2019-05-22T10:06:29.277Z,45.60
2019-05-22T10:08:58.312Z,47.20
2019-05-22T10:11:27.217Z,49.70
2019-05-22T10:13:56.190Z,49.20
2019-05-22T10:16:24.949Z,50.00
2019-05-22T10:18:53.827Z,45.90
2019-05-22T10:21:22.926Z,44.60
2019-05-22T10:23:51.581Z,47.10
2019-05-22T10:26:20.698Z,49.10
2019-05-22T10:28:49.664Z,47.40
2019-05-22T10:31:21.576Z,47.70
2019-05-22T10:33:51.882Z,50.20
2019-05-22T10:36:19.274Z,49.00
2019-05-22T10:38:48.139Z,44.40
2019-05-22T10:41:18.283Z,42.50
2019-05-22T10:43:47.478Z,41.00
2019-05-22T10:46:16.275Z,46.30
2019-05-22T10:48:45.612Z,46.90
2019-05-22T10:51:14.344Z,49.30
2019-05-22T10:53:42.996Z,43.70
2019-05-22T10:56:11.756Z,42.60
2019-05-22T10:58:40.452Z,45.30
2019-05-22T11:01:10.110Z,46.50
2019-05-22T11:03:39.270Z,46.40
2019-05-22T11:06:08.539Z,47.30
2019-05-22T11:08:37.701Z,47.30
2019-05-22T11:11:06.406Z,47.70
2019-05-22T11:13:36.734Z,47.00
2019-05-22T11:16:05.759Z,46.90
2019-05-22T11:18:35.382Z,47.90
2019-05-22T11:21:04.866Z,47.60
2019-05-22T11:23:50.053Z,47.10
2019-05-22T11:26:04.809Z,47.20
2019-05-22T11:28:33.876Z,46.40
2019-05-22T11:31:04.462Z,48.00
2019-05-22T11:33:34.500Z,47.50
2019-05-22T11:36:04.737Z,48.00
2019-05-22T11:38:33.555Z,47.00
2019-05-22T11:41:02.554Z,46.70
2019-05-22T11:43:31.869Z,46.10
2019-05-22T11:46:00.429Z,45.90
2019-05-22T11:48:29.378Z,45.20
2019-05-22T11:51:01.066Z,45.50
2019-05-22T11:53:29.445Z,47.70
2019-05-22T11:55:58.635Z,48.70
2019-05-22T11:58:27.427Z,49.20
2019-05-22T12:00:56.099Z,49.60
2019-05-22T12:03:25.237Z,49.60
2019-05-22T12:05:55.444Z,49.20
2019-05-22T12:08:26.517Z,50.10
2019-05-22T12:10:55.792Z,49.90
2019-05-22T12:13:24.961Z,49.50
2019-05-22T12:15:56.491Z,49.10
2019-05-22T12:18:27.113Z,49.20
2019-05-22T12:20:56.022Z,49.90
2019-05-22T12:23:25.991Z,51.00
2019-05-22T12:25:54.937Z,51.10
2019-05-22T12:28:24.552Z,51.20
2019-05-22T12:30:53.325Z,51.00
2019-05-22T12:33:23.078Z,50.70
2019-05-22T12:35:53.010Z,51.50
2019-05-22T12:38:26.559Z,53.90
2019-05-22T12:40:54.076Z,55.60
2019-05-22T12:43:23.148Z,57.60
2019-05-22T12:45:52.486Z,58.10
2019-05-22T12:48:21.254Z,58.40
2019-05-22T12:50:50.843Z,58.50
2019-05-22T12:53:20.623Z,58.80
2019-05-22T12:55:49.607Z,57.90
2019-05-22T12:58:19.349Z,57.80
2019-05-22T13:00:48.459Z,55.90
2019-05-22T13:03:18.387Z,54.70
2019-05-22T13:05:47.709Z,55.00
2019-05-22T13:08:17.533Z,55.60
2019-05-22T13:10:47.063Z,54.60
2019-05-22T13:13:16.142Z,53.90
2019-05-22T13:15:45.206Z,54.30
2019-05-22T13:18:17.153Z,55.50
2019-05-22T13:20:47.831Z,55.40
2019-05-22T13:23:17.510Z,54.70
2019-05-22T13:25:47.138Z,53.90
2019-05-22T13:28:18.253Z,54.30
2019-05-22T13:30:51.235Z,55.30
2019-05-22T13:33:22.323Z,55.80
2019-05-22T13:35:52.134Z,56.10
2019-05-22T13:38:21.218Z,55.10
2019-05-22T13:40:50.176Z,54.40
2019-05-22T13:43:19.565Z,53.40
2019-05-22T13:45:48.253Z,51.60
2019-05-22T13:48:16.931Z,51.10
2019-05-22T13:50:45.956Z,53.30
2019-05-22T13:53:17.422Z,54.70
2019-05-22T13:55:46.741Z,56.00
2019-05-22T13:58:16.375Z,56.50
2019-05-22T14:00:45.250Z,56.60
2019-05-22T14:03:15.735Z,56.80
2019-05-22T14:05:47.453Z,57.00
2019-05-22T14:08:16.570Z,57.50
2019-05-22T14:10:49.629Z,57.90
2019-05-22T14:13:16.805Z,58.90
2019-05-22T14:15:52.557Z,59.50
2019-05-22T14:18:16.397Z,58.90
2019-05-22T14:20:45.252Z,58.60
2019-05-22T14:23:14.528Z,60.50
2019-05-22T14:25:44.169Z,61.00
2019-05-22T14:28:14.078Z,61.40
2019-05-22T14:30:43.747Z,60.70
2019-05-22T14:33:12.831Z,60.70
2019-05-22T14:35:48.703Z,60.90
2019-05-22T14:38:13.413Z,61.20
2019-05-22T14:40:42.741Z,60.10
2019-05-22T14:43:11.786Z,59.80
2019-05-22T14:45:41.818Z,60.20
2019-05-22T14:48:11.554Z,59.80
2019-05-22T14:50:40.306Z,59.60
2019-05-22T14:53:10.558Z,60.70
2019-05-22T14:55:40.586Z,60.40
2019-05-22T14:58:09.957Z,60.10
2019-05-22T15:00:40.714Z,60.20
2019-05-22T15:03:09.966Z,60.20
2019-05-22T15:05:38.838Z,60.60
2019-05-22T15:08:07.753Z,60.50
2019-05-22T15:10:37.270Z,60.80
2019-05-22T15:13:06.313Z,60.40
2019-05-22T15:15:40.105Z,59.80
2019-05-22T15:18:06.234Z,60.00
2019-05-22T15:20:42.385Z,61.60
2019-05-22T15:23:11.392Z,60.90
2019-05-22T15:25:40.302Z,60.30
2019-05-22T15:28:09.948Z,60.50
2019-05-22T15:30:39.916Z,60.50
2019-05-22T15:33:09.678Z,59.90
2019-05-22T15:35:38.397Z,59.60
2019-05-22T15:38:09.232Z,59.50
2019-05-22T15:40:38.241Z,60.20
2019-05-22T15:43:09.587Z,60.90
2019-05-22T15:45:40.205Z,60.80
2019-05-22T15:48:12.233Z,60.00
2019-05-22T15:50:44.883Z,61.00
2019-05-22T15:53:15.501Z,60.10
2019-05-22T15:55:47.858Z,61.00
2019-05-22T15:58:18.035Z,61.30
2019-05-22T16:00:48.149Z,61.70
2019-05-22T16:03:22.676Z,60.60
2019-05-22T16:05:53.707Z,60.30
2019-05-22T16:08:23.070Z,59.10
2019-05-22T16:10:52.254Z,59.20
2019-05-22T16:13:22.931Z,59.80
2019-05-22T16:15:55.787Z,60.00
2019-05-22T16:18:28.462Z,59.10
2019-05-22T16:21:00.554Z,57.60
2019-05-22T16:23:31.631Z,57.00
2019-05-22T16:26:01.528Z,57.10
2019-05-22T16:28:35.718Z,57.60
2019-05-22T16:31:03.527Z,57.40
2019-05-22T16:33:34.569Z,57.50
2019-05-22T16:36:04.703Z,58.00
2019-05-22T16:38:36.553Z,58.10
2019-05-22T16:41:06.419Z,58.40
2019-05-22T16:43:49.033Z,57.50
2019-05-22T16:46:10.255Z,56.30
2019-05-22T16:48:41.314Z,56.60
2019-05-22T16:51:11.952Z,56.20
2019-05-22T16:53:41.035Z,55.80
2019-05-22T16:56:09.829Z,55.80
2019-05-22T16:58:38.756Z,57.10
2019-05-22T17:01:09.170Z,57.10
2019-05-22T17:03:38.867Z,57.70
2019-05-22T17:06:07.646Z,57.50
2019-05-22T17:08:37.439Z,57.60
2019-05-22T17:11:07.818Z,57.90
2019-05-22T17:13:37.127Z,58.10
2019-05-22T17:16:07.316Z,57.70
2019-05-22T17:18:47.277Z,57.30
2019-05-22T17:21:08.009Z,57.80
2019-05-22T17:23:36.672Z,56.90
2019-05-22T17:26:05.653Z,57.00
2019-05-22T17:28:34.439Z,59.00
2019-05-22T17:31:04.261Z,59.70
2019-05-22T17:33:34.019Z,59.90
2019-05-22T17:36:05.774Z,60.70
2019-05-22T17:38:35.135Z,60.60
2019-05-22T17:41:04.749Z,60.30
2019-05-22T17:43:34.166Z,61.50
2019-05-22T17:46:04.416Z,61.60
2019-05-22T17:48:34.174Z,61.20
2019-05-22T17:51:04.518Z,61.70
2019-05-22T17:53:33.912Z,62.50
2019-05-22T17:56:02.497Z,62.50
2019-05-22T17:58:31.174Z,62.60
2019-05-22T18:01:01.092Z,63.00
2019-05-22T18:03:30.270Z,63.40
2019-05-22T18:05:59.814Z,64.00
2019-05-22T18:08:29.546Z,64.50
2019-05-22T18:11:00.150Z,64.10
2019-05-22T18:13:29.868Z,64.20
2019-05-22T18:15:58.721Z,64.80
2019-05-22T18:18:27.363Z,64.90
2019-05-22T18:20:56.678Z,64.90
2019-05-22T18:23:25.425Z,65.20
2019-05-22T18:25:54.146Z,65.40
2019-05-22T18:28:23.462Z,66.50
2019-05-22T18:30:52.653Z,67.30
2019-05-22T18:33:21.296Z,68.20
2019-05-22T18:35:49.936Z,68.90
2019-05-22T18:38:18.601Z,69.40
2019-05-22T18:40:47.322Z,69.80
2019-05-22T18:43:18.836Z,70.30
2019-05-22T18:45:46.660Z,71.60
2019-05-22T18:48:15.677Z,71.20
2019-05-22T18:50:44.651Z,71.50
2019-05-22T18:53:13.500Z,71.70
2019-05-22T18:55:42.231Z,72.40
2019-05-22T18:58:11.268Z,73.10
2019-05-22T19:00:40.034Z,73.30
2019-05-22T19:03:09.264Z,73.80
2019-05-22T19:05:38.151Z,73.70
2019-05-22T19:08:07.083Z,75.30
2019-05-22T19:10:35.926Z,75.60
2019-05-22T19:13:04.933Z,76.20
2019-05-22T19:15:33.811Z,76.20
2019-05-22T19:18:02.679Z,76.60
2019-05-22T19:20:31.600Z,76.80
2019-05-22T19:23:01.698Z,76.90
2019-05-22T19:25:30.874Z,77.00
2019-05-22T19:27:59.514Z,77.30
2019-05-22T19:30:28.345Z,78.10
2019-05-22T19:32:56.971Z,78.00
2019-05-22T19:35:25.604Z,78.40
2019-05-22T19:37:54.933Z,78.50
2019-05-22T19:40:23.745Z,79.10
2019-05-22T19:42:52.678Z,79.10
2019-05-22T19:45:22.179Z,79.10
2019-05-22T19:47:52.890Z,79.20
2019-05-22T19:50:23.853Z,79.30
2019-05-22T19:52:55.176Z,79.80
2019-05-22T19:55:26.072Z,80.60
2019-05-22T19:57:55.145Z,81.30
2019-05-22T20:00:24.760Z,82.30
2019-05-22T20:02:54.899Z,82.70
2019-05-22T20:05:25.481Z,83.40
2019-05-22T20:07:54.693Z,84.30
2019-05-22T20:10:23.746Z,85.00
2019-05-22T20:12:52.493Z,85.80
2019-05-22T20:15:22.557Z,86.30
2019-05-22T20:17:51.606Z,86.60
2019-05-22T20:20:22.303Z,86.70
2019-05-22T20:22:53.209Z,87.00
2019-05-22T20:25:23.079Z,87.50
2019-05-22T20:27:52.200Z,87.80
2019-05-22T20:30:22.901Z,87.90
2019-05-22T20:32:51.742Z,88.00
2019-05-22T20:35:20.988Z,87.70
2019-05-22T20:37:50.226Z,86.40
2019-05-22T20:40:20.386Z,85.50
2019-05-22T20:42:49.419Z,84.80
2019-05-22T20:45:21.070Z,84.70
2019-05-22T20:47:54.404Z,84.10
2019-05-22T20:50:24.595Z,84.50
2019-05-22T20:52:53.536Z,85.40
2019-05-22T20:55:22.848Z,85.00
2019-05-22T20:57:53.149Z,86.10
2019-05-22T21:00:22.065Z,85.40
2019-05-22T21:02:53.732Z,86.60
2019-05-22T21:05:25.360Z,87.00
2019-05-22T21:07:57.231Z,87.00
2019-05-22T21:10:27.235Z,87.80
2019-05-22T21:12:57.817Z,87.90
2019-05-22T21:15:28.705Z,88.20
2019-05-22T21:17:57.806Z,88.40
2019-05-22T21:20:28.131Z,89.00
2019-05-22T21:22:57.050Z,89.20
2019-05-22T21:25:26.058Z,89.20
2019-05-22T21:27:54.812Z,89.30
2019-05-22T21:30:25.201Z,89.90
2019-05-22T21:32:54.087Z,89.60
2019-05-22T21:35:23.827Z,90.40
2019-05-22T21:37:52.852Z,90.00
2019-05-22T21:40:23.036Z,90.10
2019-05-22T21:42:53.980Z,90.00
2019-05-22T21:45:24.193Z,89.80
2019-05-22T21:47:53.293Z,90.10
2019-05-22T21:50:22.713Z,90.30
2019-05-22T21:52:52.211Z,90.50
2019-05-22T21:55:22.269Z,90.50
2019-05-22T21:57:51.049Z,90.60
2019-05-22T22:00:36.043Z,90.80
2019-05-22T22:03:06.938Z,91.00
2019-05-22T22:05:35.915Z,90.90
2019-05-22T22:08:05.320Z,90.90
2019-05-22T22:10:34.021Z,91.00
2019-05-22T22:13:07.563Z,91.50
2019-05-22T22:15:35.775Z,91.10
2019-05-22T22:18:06.212Z,91.00
2019-05-22T22:20:35.182Z,91.10
2019-05-22T22:23:04.999Z,91.00
2019-05-22T22:25:34.048Z,91.00
2019-05-22T22:28:04.546Z,91.10
2019-05-22T22:30:41.038Z,91.00
2019-05-22T22:33:10.087Z,91.50
2019-05-22T22:35:39.599Z,91.10
2019-05-22T22:38:09.232Z,91.20
2019-05-22T22:40:39.216Z,91.20
2019-05-22T22:43:10.528Z,91.10
2019-05-22T22:45:43.578Z,91.10
2019-05-22T22:48:15.885Z,91.10
2019-05-22T22:50:45.557Z,91.10
2019-05-22T22:53:18.514Z,91.10
2019-05-22T22:55:47.980Z,91.00
2019-05-22T22:58:18.999Z,91.40
2019-05-22T23:00:49.376Z,91.10
2019-05-22T23:03:24.554Z,91.60
2019-05-22T23:05:53.735Z,91.60
2019-05-22T23:08:29.725Z,91.90
2019-05-22T23:10:58.427Z,92.00
2019-05-22T23:13:27.982Z,92.00
2019-05-22T23:15:58.063Z,92.00
2019-05-22T23:18:43.055Z,92.30
2019-05-22T23:21:12.227Z,93.00
2019-05-22T23:23:41.351Z,92.90
2019-05-22T23:26:11.598Z,93.20
2019-05-22T23:28:42.256Z,93.40
2019-05-22T23:31:12.070Z,93.60
2019-05-22T23:33:41.088Z,93.60
2019-05-22T23:36:12.155Z,93.60
2019-05-22T23:38:41.597Z,93.90
2019-05-22T23:41:11.992Z,94.40
2019-05-22T23:43:42.566Z,94.50
2019-05-22T23:46:13.478Z,94.70
2019-05-22T23:48:43.907Z,95.20
2019-05-22T23:51:12.802Z,95.50
2019-05-22T23:53:42.237Z,95.90
2019-05-22T23:56:11.837Z,96.80
2019-05-22T23:58:52.098Z,96.50
